Muse, Oklahoma
Current Conditions -  °F | °C
As of 9:15 AM on Saturday 25 Oct 2014 (Local Time) from KRKR Reporting Station
Clear Clear  
Wind Chill: 67°   Ceiling: Unl
Heat Index: 67°   Visibility: 10mi
Dew Point: 59°   Wind: 3mph
Humidity: 74%   Direction: 240°WSW
Pressure: 30.13"   Gusts: NA
Location:  34.67°N, 94.76°W
Report Text: KRKR 251415Z AUTO 24003KT 10SM CLR 20/15 A3013 RMK AO2 T01970150
Loading
Personal Weather Stations






























Interactive Weather Map
Tropical Storm Tracking
New forecast layout! Learn more

10-Day Weather Forecast

Advertisements
Track Severe Weather on mobile